Time;durP1;ratioP1;P1;durP2;ratioP2;P2;SDS_P1;SDS_P2;PMS_P1;PMS_P2;Temp;Humidity;BMP_temperature;BMP_pressure;BME280_temperature;BME280_humidity;BME280_pressure;Samples;Min_cycle;Max_cycle;Signal;HPM_P1;HPM_P2
2020/12/25 00:01:48;;;;;;;10.50;4.22;;;;;;;4.89;100.00;100559.94;5141314;28;20437;-81
2020/12/25 00:04:19;;;;;;;7.25;4.10;;;;;;;4.87;100.00;100561.69;5140929;28;20038;-80
2020/12/25 00:06:49;;;;;;;8.30;4.07;;;;;;;4.90;100.00;100571.13;5139372;28;20026;-78
2020/12/25 00:09:19;;;;;;;10.30;4.45;;;;;;;4.88;100.00;100570.28;5123768;28;20034;-80
2020/12/25 00:11:49;;;;;;;10.38;4.30;;;;;;;4.78;100.00;100572.13;5159363;28;20601;-77
2020/12/25 00:14:20;;;;;;;13.10;4.03;;;;;;;4.70;100.00;100573.97;5161522;28;20056;-80
2020/12/25 00:16:50;;;;;;;11.48;4.15;;;;;;;4.82;100.00;100576.41;5162206;28;20117;-82
2020/12/25 00:19:21;;;;;;;11.57;4.03;;;;;;;4.67;100.00;100571.41;5161960;28;20030;-83
2020/12/25 00:21:51;;;;;;;15.80;4.80;;;;;;;4.82;100.00;100584.16;5161204;28;20030;-79
2020/12/25 00:24:21;;;;;;;11.70;4.32;;;;;;;4.77;100.00;100579.94;5143507;28;20025;-83
2020/12/25 00:26:51;;;;;;;13.80;4.20;;;;;;;4.79;100.00;100589.38;5146438;28;20046;-79
2020/12/25 00:29:22;;;;;;;8.45;4.00;;;;;;;4.81;100.00;100584.19;5139871;28;20035;-80
2020/12/25 00:31:52;;;;;;;11.32;3.85;;;;;;;4.73;100.00;100604.13;5140908;28;20098;-78
2020/12/25 00:34:22;;;;;;;8.20;3.63;;;;;;;4.75;100.00;100607.53;5142609;28;20367;-80
2020/12/25 00:36:53;;;;;;;8.77;3.72;;;;;;;4.69;100.00;100605.91;5145702;28;20054;-79
2020/12/25 00:39:23;;;;;;;15.00;4.43;;;;;;;4.69;100.00;100605.91;5145157;28;20037;-82
2020/12/25 00:41:53;;;;;;;9.68;3.75;;;;;;;4.79;100.00;100607.50;5145574;28;20041;-79
2020/12/25 00:44:23;;;;;;;9.48;3.53;;;;;;;4.76;100.00;100615.31;5144804;28;20080;-79
2020/12/25 00:46:53;;;;;;;9.48;3.47;;;;;;;4.79;100.00;100623.03;5145028;28;20676;-78
2020/12/25 00:49:24;;;;;;;12.27;3.30;;;;;;;4.77;100.00;100627.38;5144951;28;20481;-79
2020/12/25 00:51:54;;;;;;;11.27;3.38;;;;;;;4.57;100.00;100631.91;5126453;28;20023;-81
2020/12/25 00:54:24;;;;;;;8.95;3.15;;;;;;;4.61;100.00;100633.59;5140672;28;20385;-81
2020/12/25 00:56:55;;;;;;;8.30;2.70;;;;;;;4.56;100.00;100640.56;5143829;28;20019;-78
2020/12/25 00:59:25;;;;;;;13.13;2.97;;;;;;;4.57;100.00;100639.69;5139199;28;20023;-80
2020/12/25 01:01:55;;;;;;;6.95;2.47;;;;;;;4.49;100.00;100638.88;5162778;28;20054;-79
2020/12/25 01:04:25;;;;;;;8.88;3.00;;;;;;;4.52;100.00;100646.66;5143398;28;20481;-81
2020/12/25 01:06:56;;;;;;;7.05;2.95;;;;;;;4.50;100.00;100650.94;5155647;28;20050;-81
2020/12/25 01:09:26;;;;;;;12.82;2.55;;;;;;;4.44;100.00;100656.19;5158864;28;20099;-82
2020/12/25 01:11:59;;;;;;;8.85;2.70;;;;;;;4.38;100.00;100661.44;5144958;28;20390;-81
2020/12/25 01:14:30;;;;;;;7.60;2.28;;;;;;;4.46;100.00;100664.78;5144018;28;20039;-82
2020/12/25 01:17:00;;;;;;;5.90;2.17;;;;;;;4.42;100.00;100664.84;5126256;28;20532;-80
2020/12/25 01:19:31;;;;;;;6.45;2.08;;;;;;;4.38;100.00;100671.78;5144327;28;20039;-81
2020/12/25 01:22:01;;;;;;;8.25;2.13;;;;;;;4.40;100.00;100671.75;5144178;28;20039;-82
2020/12/25 01:24:31;;;;;;;8.20;2.55;;;;;;;4.46;100.00;100676.88;5144699;28;20540;-83
2020/12/25 01:27:01;;;;;;;11.25;2.20;;;;;;;4.47;100.00;100679.44;5144613;28;20358;-82
2020/12/25 01:29:32;;;;;;;7.57;1.90;;;;;;;4.28;100.00;100682.22;5143831;28;20029;-81
2020/12/25 01:32:02;;;;;;;6.55;2.30;;;;;;;4.30;100.00;100683.06;5144332;28;20018;-80
2020/12/25 01:34:32;;;;;;;7.05;2.28;;;;;;;4.34;100.00;100689.94;5143309;28;20026;-82
2020/12/25 01:37:03;;;;;;;12.10;2.28;;;;;;;4.49;100.00;100687.19;5152183;28;20061;-78
2020/12/25 01:39:33;;;;;;;6.88;2.05;;;;;;;4.34;100.00;100688.22;5144163;28;20034;-78
2020/12/25 01:42:03;;;;;;;6.85;2.35;;;;;;;4.29;100.00;100695.13;5143716;28;20033;-78
2020/12/25 01:44:33;;;;;;;9.80;2.40;;;;;;;4.21;100.00;100706.41;5143186;28;20026;-79
2020/12/25 01:47:04;;;;;;;8.85;2.33;;;;;;;4.20;100.00;100690.06;5163937;28;20133;-80
2020/12/25 01:49:34;;;;;;;9.52;2.25;;;;;;;4.19;100.00;100697.81;5155787;28;20031;-83
2020/12/25 01:52:04;;;;;;;7.88;2.08;;;;;;;4.29;100.00;100689.97;5139917;28;20417;-81
2020/12/25 01:54:35;;;;;;;6.43;1.70;;;;;;;4.26;100.00;100690.00;5139677;28;20030;-78
2020/12/25 01:57:06;;;;;;;6.78;1.60;;;;;;;4.34;100.00;100693.38;5147560;28;20026;-81
2020/12/25 01:59:37;;;;;;;7.53;1.95;;;;;;;4.36;100.00;100690.78;5163786;28;20022;-83
2020/12/25 02:02:08;;;;;;;8.35;1.85;;;;;;;4.40;100.00;100698.50;5129657;28;20070;-81
2020/12/25 02:04:38;;;;;;;5.50;1.88;;;;;;;4.35;100.00;100694.22;5143583;28;20030;-81
2020/12/25 02:07:09;;;;;;;5.80;1.90;;;;;;;4.27;100.00;100696.03;5144073;28;20089;-82
2020/12/25 02:09:39;;;;;;;7.80;1.92;;;;;;;4.24;100.00;100696.91;5143808;28;20027;-78
2020/12/25 02:12:10;;;;;;;7.35;1.70;;;;;;;4.18;100.00;100709.91;5144112;28;20058;-78
2020/12/25 02:14:41;;;;;;;6.90;1.92;;;;;;;4.19;100.00;100709.03;5126124;28;20035;-78
2020/12/25 02:17:11;;;;;;;7.15;2.00;;;;;;;4.18;100.00;100717.66;5148348;28;20023;-82
2020/12/25 02:19:41;;;;;;;6.65;1.80;;;;;;;4.10;100.00;100709.09;5129501;28;20051;-84
2020/12/25 02:22:11;;;;;;;9.90;1.70;;;;;;;4.05;100.00;100718.59;5163229;28;20441;-81
2020/12/25 02:24:42;;;;;;;9.88;2.10;;;;;;;4.06;100.00;100722.03;5146179;28;20026;-79
2020/12/25 02:27:12;;;;;;;6.63;2.10;;;;;;;4.07;100.00;100728.91;5157333;28;20042;-78
2020/12/25 02:29:42;;;;;;;11.75;2.45;;;;;;;4.11;100.00;100731.47;5155643;28;20049;-78
2020/12/25 02:32:13;;;;;;;7.43;2.65;;;;;;;4.21;100.00;100738.31;5135394;28;20041;-81
2020/12/25 02:34:43;;;;;;;8.10;3.00;;;;;;;4.23;100.00;100744.34;5147728;28;20037;-82
2020/12/25 02:37:14;;;;;;;14.60;2.95;;;;;;;4.15;100.00;100747.84;5137550;28;20062;-82
2020/12/25 02:39:44;;;;;;;8.35;2.70;;;;;;;4.03;100.00;100755.69;5136327;28;20057;-80
2020/12/25 02:42:14;;;;;;;11.13;2.80;;;;;;;4.12;100.00;100755.63;5142984;28;20049;-79
2020/12/25 02:44:45;;;;;;;8.52;2.75;;;;;;;4.09;100.00;100748.75;5122703;29;20031;-79
2020/12/25 02:47:15;;;;;;;10.88;2.90;;;;;;;3.99;100.00;100760.00;5123102;29;20027;-84
2020/12/25 02:49:45;;;;;;;9.55;2.47;;;;;;;4.00;100.00;100755.69;5127663;28;20030;-84
2020/12/25 02:52:15;;;;;;;7.32;2.25;;;;;;;4.03;100.00;100761.72;5142263;28;20026;-81
2020/12/25 02:54:46;;;;;;;5.85;2.15;;;;;;;4.06;100.00;100763.41;5142876;28;20041;-80
2020/12/25 02:57:16;;;;;;;6.28;2.28;;;;;;;4.08;100.00;100761.66;5145304;28;20022;-80
2020/12/25 02:59:46;;;;;;;8.05;2.53;;;;;;;4.08;100.00;100757.38;5142639;28;20528;-81
2020/12/25 03:02:17;;;;;;;7.63;2.42;;;;;;;3.96;100.00;100756.59;5112772;29;20023;-81
2020/12/25 03:04:47;;;;;;;8.63;2.15;;;;;;;3.99;100.00;100754.81;5135815;28;20042;-78
2020/12/25 03:07:17;;;;;;;8.85;2.40;;;;;;;3.97;100.00;100753.97;5125344;28;20031;-80
2020/12/25 03:09:48;;;;;;;5.93;1.70;;;;;;;4.04;100.00;100762.56;5130344;28;20030;-82
2020/12/25 03:12:18;;;;;;;4.03;1.65;;;;;;;4.12;100.00;100766.81;5142964;28;20732;-78
2020/12/25 03:14:48;;;;;;;7.03;2.00;;;;;;;4.07;100.00;100768.59;5142182;28;20039;-78
2020/12/25 03:17:18;;;;;;;6.90;1.75;;;;;;;3.98;100.00;100771.22;5124974;28;20053;-80
2020/12/25 03:19:49;;;;;;;7.53;1.90;;;;;;;4.11;100.00;100770.28;5142319;28;20030;-78
2020/12/25 03:22:19;;;;;;;8.25;2.03;;;;;;;4.22;100.00;100767.59;5124412;28;20030;-81
2020/12/25 03:24:50;;;;;;;5.70;1.48;;;;;;;4.05;100.00;100778.09;5124755;28;20089;-79
2020/12/25 03:27:20;;;;;;;7.03;1.92;;;;;;;4.16;100.00;100771.09;5134476;28;20397;-83
2020/12/25 03:29:50;;;;;;;8.90;1.80;;;;;;;4.21;100.00;100784.00;5160160;28;20594;-81
2020/12/25 03:32:20;;;;;;;8.32;1.70;;;;;;;4.24;100.00;100781.38;5161809;28;20069;-83
2020/12/25 03:34:51;;;;;;;7.38;1.77;;;;;;;4.17;100.00;100782.31;5162076;28;20026;-81
2020/12/25 03:37:21;;;;;;;5.25;1.55;;;;;;;4.03;100.00;100790.16;5144760;28;20022;-79
2020/12/25 03:39:51;;;;;;;6.55;1.70;;;;;;;4.20;100.00;100787.44;5152717;28;20038;-78
2020/12/25 03:42:22;;;;;;;6.30;1.80;;;;;;;4.13;100.00;100785.78;5142100;28;20023;-78
2020/12/25 03:44:54;;;;;;;8.82;2.10;;;;;;;4.15;99.19;100790.06;5141707;28;20027;-84
2020/12/25 03:47:25;;;;;;;10.05;1.63;;;;;;;4.23;99.63;100795.19;5126035;28;20113;-80
2020/12/25 03:49:56;;;;;;;5.53;1.40;;;;;;;4.27;98.96;100790.00;5158463;28;20518;-78
2020/12/25 03:52:26;;;;;;;3.53;1.50;;;;;;;4.23;98.90;100796.06;5138462;28;20034;-82
2020/12/25 03:54:56;;;;;;;7.13;1.65;;;;;;;4.20;99.85;100798.69;5140893;28;20077;-83
2020/12/25 03:57:26;;;;;;;7.97;1.90;;;;;;;4.17;99.52;100801.28;5141717;28;20038;-83
2020/12/25 03:59:57;;;;;;;5.32;1.58;;;;;;;4.17;99.47;100798.69;5141265;28;20036;-82
2020/12/25 04:02:27;;;;;;;4.15;1.30;;;;;;;4.14;100.00;100805.59;5156304;28;20046;-87
2020/12/25 04:04:57;;;;;;;4.47;1.65;;;;;;;4.05;100.00;100813.41;5161893;28;20026;-79
2020/12/25 04:07:28;;;;;;;9.80;2.00;;;;;;;4.10;100.00;100817.69;5160501;28;20607;-79
2020/12/25 04:09:58;;;;;;;6.72;1.73;;;;;;;3.95;100.00;100828.09;5150109;28;20026;-81
2020/12/25 04:12:28;;;;;;;6.38;1.83;;;;;;;4.06;100.00;100826.34;5152243;28;20081;-79
2020/12/25 04:14:59;;;;;;;6.50;2.20;;;;;;;4.03;99.96;100835.81;5161291;28;20026;-81
2020/12/25 04:17:29;;;;;;;7.72;1.80;;;;;;;4.04;99.45;100838.41;5161656;28;20746;-81
2020/12/25 04:19:59;;;;;;;6.57;1.90;;;;;;;4.01;99.62;100838.44;5161275;28;20113;-82
2020/12/25 04:22:29;;;;;;;4.30;1.90;;;;;;;4.04;99.79;100846.19;5143213;28;20026;-82
2020/12/25 04:25:00;;;;;;;4.47;1.80;;;;;;;3.95;100.00;100843.63;5161286;28;20028;-78
2020/12/25 04:27:30;;;;;;;6.93;2.10;;;;;;;3.90;99.76;100847.09;5157840;28;20126;-78
2020/12/25 04:30:00;;;;;;;6.00;1.90;;;;;;;3.91;100.00;100853.97;5160921;28;20428;-79
2020/12/25 04:32:31;;;;;;;7.13;1.75;;;;;;;4.03;100.00;100856.50;5161145;28;20041;-79
2020/12/25 04:35:01;;;;;;;7.10;2.00;;;;;;;4.11;100.00;100858.19;5160757;28;20026;-83
2020/12/25 04:37:32;;;;;;;5.78;1.90;;;;;;;4.03;99.94;100857.38;5161645;28;20066;-83
2020/12/25 04:40:04;;;;;;;7.60;1.85;;;;;;;4.04;100.00;100858.22;5150164;28;20027;-78
2020/12/25 04:42:40;;;;;;;10.20;1.80;;;;;;;4.02;99.63;100865.13;5141300;28;20026;-81
2020/12/25 04:45:10;;;;;;;5.53;1.52;;;;;;;4.07;99.53;100874.59;5140936;28;20058;-83
2020/12/25 04:47:40;;;;;;;7.15;2.10;;;;;;;4.11;99.71;100865.94;5141066;28;20061;-84
2020/12/25 04:50:10;;;;;;;7.00;1.77;;;;;;;4.13;99.90;100873.72;5141166;28;20167;-80
2020/12/25 04:52:41;;;;;;;5.68;1.85;;;;;;;4.03;99.97;100877.19;5141073;28;20485;-79
2020/12/25 04:55:11;;;;;;;9.80;2.20;;;;;;;4.02;99.70;100871.19;5141336;28;20022;-81
2020/12/25 04:57:41;;;;;;;7.65;1.88;;;;;;;4.11;100.00;100873.72;5136835;28;20516;-80
2020/12/25 05:00:16;;;;;;;9.82;2.10;;;;;;;4.05;100.00;100871.16;5145699;28;20105;-80
2020/12/25 05:02:48;;;;;;;7.13;1.90;;;;;;;4.02;100.00;100873.75;5160214;28;20022;-80
2020/12/25 05:05:26;;;;;;;7.53;1.95;;;;;;;3.94;100.00;100882.41;5160943;28;20034;-80
2020/12/25 05:07:58;;;;;;;8.07;1.90;;;;;;;3.91;100.00;100877.25;5147395;28;20109;-78
2020/12/25 05:10:28;;;;;;;5.72;1.83;;;;;;;3.94;100.00;100882.41;5126262;28;20019;-83
2020/12/25 05:12:58;;;;;;;7.00;1.98;;;;;;;3.95;100.00;100891.91;5142240;28;20457;-80
2020/12/25 05:15:29;;;;;;;7.40;2.03;;;;;;;4.01;100.00;100899.63;5160958;28;20489;-80
2020/12/25 05:18:00;;;;;;;6.57;1.90;;;;;;;3.90;100.00;100907.41;5160841;28;20029;-82
2020/12/25 05:20:30;;;;;;;3.58;1.70;;;;;;;4.01;100.00;100904.78;5162466;28;20058;-83
2020/12/25 05:23:10;;;;;;;7.47;2.17;;;;;;;3.98;100.00;100899.63;5147752;28;20057;-82
2020/12/25 05:25:40;;;;;;;4.15;1.70;;;;;;;3.86;100.00;100895.38;5162063;28;20395;-80
2020/12/25 05:28:12;;;;;;;4.80;1.90;;;;;;;3.84;100.00;100898.81;5164813;28;20109;-78
2020/12/25 05:30:44;;;;;;;6.97;1.70;;;;;;;3.87;100.00;100910.03;5164454;28;20543;-79
2020/12/25 05:33:15;;;;;;;6.38;1.98;;;;;;;3.89;100.00;100910.00;5163863;28;20058;-82
2020/12/25 05:35:45;;;;;;;6.95;2.00;;;;;;;3.86;100.00;100908.31;5164680;28;20053;-80
2020/12/25 05:38:15;;;;;;;7.72;1.95;;;;;;;3.79;100.00;100914.34;5164122;28;20714;-79
2020/12/25 05:40:46;;;;;;;6.40;1.88;;;;;;;3.76;100.00;100914.34;5147358;28;20504;-78
2020/12/25 05:43:17;;;;;;;9.52;2.40;;;;;;;3.70;100.00;100929.88;5144387;28;20046;-85
2020/12/25 05:45:48;;;;;;;8.85;2.25;;;;;;;3.75;100.00;100927.28;5147166;28;20034;-79
2020/12/25 05:48:18;;;;;;;6.38;1.90;;;;;;;3.81;100.00;100927.28;5164507;28;20021;-83
2020/12/25 05:50:50;;;;;;;6.78;2.00;;;;;;;3.68;100.00;100934.19;5163940;28;20539;-84
2020/12/25 05:53:20;;;;;;;7.72;2.03;;;;;;;3.78;100.00;100930.72;5164019;28;20045;-81
2020/12/25 05:55:51;;;;;;;8.20;2.17;;;;;;;3.82;100.00;100929.81;5164353;28;20026;-82
2020/12/25 05:58:23;;;;;;;5.53;1.70;;;;;;;3.87;100.00;100938.44;5152437;28;20039;-80
2020/12/25 06:00:54;;;;;;;4.57;1.80;;;;;;;3.91;100.00;100939.28;5141732;28;20734;-80
2020/12/25 06:03:24;;;;;;;8.25;2.20;;;;;;;3.81;100.00;100938.44;5133430;28;20034;-81
2020/12/25 06:05:59;;;;;;;6.63;2.15;;;;;;;3.89;100.00;100948.78;5161262;28;20057;-81
2020/12/25 06:08:36;;;;;;;8.38;1.83;;;;;;;3.80;100.00;100957.41;5143676;28;20050;-81
2020/12/25 06:11:07;;;;;;;5.65;1.63;;;;;;;3.72;100.00;100954.00;5129580;28;20019;-81
2020/12/25 06:13:41;;;;;;;5.55;1.70;;;;;;;3.75;100.00;100950.56;5163893;28;20026;-81
2020/12/25 06:16:14;;;;;;;7.13;1.70;;;;;;;3.75;100.00;100953.97;5146152;28;20026;-79
2020/12/25 06:19:03;;;;;;;7.63;2.10;;;;;;;3.77;100.00;100957.41;5163970;28;20552;-78
2020/12/25 06:21:50;;;;;;;5.82;1.75;;;;;;;3.85;100.00;100958.28;5163506;28;20058;-82
2020/12/25 06:24:25;;;;;;;6.05;1.70;;;;;;;3.76;100.00;100962.63;5164004;28;20030;-80
2020/12/25 06:27:00;;;;;;;4.55;1.85;;;;;;;3.67;100.00;100960.91;5161778;28;20033;-81
2020/12/25 06:29:30;;;;;;;6.70;2.00;;;;;;;3.80;100.00;100961.72;5143176;28;20026;-80
2020/12/25 06:32:04;;;;;;;6.15;1.80;;;;;;;3.78;100.00;100972.06;5141631;28;20029;-79
2020/12/25 06:34:45;;;;;;;6.95;1.75;;;;;;;3.89;100.00;100988.41;5142597;28;20175;-79
2020/12/25 06:37:18;;;;;;;5.70;2.00;;;;;;;3.70;100.00;100993.63;5143479;28;20516;-82
2020/12/25 06:39:53;;;;;;;6.55;1.77;;;;;;;3.72;100.00;101000.50;5142988;28;20401;-82
2020/12/25 06:42:27;;;;;;;5.72;1.85;;;;;;;3.79;100.00;100994.47;5143053;28;20026;-80
2020/12/25 06:45:06;;;;;;;5.50;2.00;;;;;;;3.86;100.00;100993.59;5142904;28;20564;-80
2020/12/25 06:47:39;;;;;;;7.55;2.30;;;;;;;3.82;100.00;100998.78;5143186;28;20046;-80
2020/12/25 06:50:12;;;;;;;6.57;1.90;;;;;;;3.64;100.00;100998.81;5142996;28;20030;-81
2020/12/25 06:52:53;;;;;;;4.47;1.80;;;;;;;3.58;100.00;100999.66;5163030;28;20022;-80
2020/12/25 06:55:24;;;;;;;4.07;1.65;;;;;;;3.61;99.75;101004.81;5163455;28;20035;-87
2020/12/25 06:57:55;;;;;;;6.88;1.70;;;;;;;3.72;100.00;100997.06;5150774;28;20524;-83
2020/12/25 07:00:25;;;;;;;4.45;1.98;;;;;;;3.67;100.00;101003.97;5148871;28;20037;-81
2020/12/25 07:03:09;;;;;;;5.75;1.73;;;;;;;3.70;99.69;101012.59;5157207;28;20058;-81
2020/12/25 07:05:49;;;;;;;6.20;1.90;;;;;;;3.66;99.03;101013.44;5146244;28;20682;-80
2020/12/25 07:08:27;;;;;;;3.83;1.80;;;;;;;3.66;98.84;101012.56;5125763;28;20030;-80
2020/12/25 07:11:03;;;;;;;6.18;1.98;;;;;;;3.57;96.56;101025.47;5125264;28;20019;-80
2020/12/25 07:13:35;;;;;;;4.72;1.80;;;;;;;3.46;95.76;101016.03;5156842;28;20109;-80
2020/12/25 07:16:06;;;;;;;4.43;1.98;;;;;;;3.47;95.83;101023.78;5153025;28;20042;-80
2020/12/25 07:18:37;;;;;;;4.55;1.92;;;;;;;3.54;95.96;101029.81;5141894;28;20037;-79
2020/12/25 07:21:08;;;;;;;4.13;1.88;;;;;;;3.66;95.69;101026.38;5140889;28;20027;-82
2020/12/25 07:23:43;;;;;;;5.43;1.90;;;;;;;3.55;96.18;101036.69;5141102;28;20508;-79
2020/12/25 07:26:14;;;;;;;5.20;2.00;;;;;;;3.49;94.73;101041.84;5142732;28;20022;-80
2020/12/25 07:28:46;;;;;;;4.95;1.90;;;;;;;3.38;93.78;101043.59;5143755;28;20034;-81
2020/12/25 07:31:19;;;;;;;6.65;2.00;;;;;;;3.38;94.65;101049.59;5139302;28;20104;-80
2020/12/25 07:33:55;;;;;;;6.68;1.92;;;;;;;3.46;93.70;101053.06;5149117;28;20038;-80
2020/12/25 07:36:25;;;;;;;5.10;1.80;;;;;;;3.42;93.65;101050.47;5125589;28;20029;-81
2020/12/25 07:39:05;;;;;;;6.93;2.10;;;;;;;3.61;94.79;101051.34;5142333;28;20023;-80
2020/12/25 07:41:35;;;;;;;5.63;1.67;;;;;;;3.63;94.47;101067.69;5159337;28;20030;-83
2020/12/25 07:44:06;;;;;;;4.80;1.90;;;;;;;3.65;94.42;101071.13;5145895;28;20531;-80
2020/12/25 07:46:37;;;;;;;5.20;2.03;;;;;;;3.55;94.00;101078.88;5163398;28;20018;-83
2020/12/25 07:49:08;;;;;;;8.95;2.13;;;;;;;3.61;93.83;101073.75;5145896;28;20026;-82
2020/12/25 07:51:38;;;;;;;4.75;1.80;;;;;;;3.54;93.27;101086.66;5163240;28;20098;-81
2020/12/25 07:54:09;;;;;;;6.53;1.50;;;;;;;3.41;91.25;101088.38;5163491;28;20046;-82
2020/12/25 07:56:39;;;;;;;4.15;1.50;;;;;;;3.47;90.41;101097.81;5163451;28;20649;-80
2020/12/25 07:59:09;;;;;;;7.72;1.85;;;;;;;3.51;91.29;101094.41;5163203;28;20026;-81
2020/12/25 08:01:40;;;;;;;6.10;1.38;;;;;;;3.45;91.01;101096.97;5145547;28;20090;-79
2020/12/25 08:04:10;;;;;;;6.88;1.70;;;;;;;3.53;91.66;101095.28;5142878;28;20031;-78
2020/12/25 08:06:40;;;;;;;5.10;1.50;;;;;;;3.54;92.10;101094.41;5151230;28;20027;-79
2020/12/25 08:09:13;;;;;;;5.20;1.50;;;;;;;3.63;92.00;101101.28;5137944;28;20054;-78
2020/12/25 08:11:44;;;;;;;6.00;1.77;;;;;;;3.61;91.04;101110.75;5154513;28;20413;-83
2020/12/25 08:14:15;;;;;;;12.43;2.10;;;;;;;3.80;91.89;101106.47;5163103;28;20030;-80
2020/12/25 08:16:46;;;;;;;11.20;1.88;;;;;;;3.70;91.60;101110.78;5163621;28;20116;-82
2020/12/25 08:19:17;;;;;;;9.43;1.70;;;;;;;3.67;92.00;101120.25;5160551;28;20030;-83
2020/12/25 08:21:48;;;;;;;6.50;1.75;;;;;;;3.59;91.97;101121.97;5129919;28;20046;-80
2020/12/25 08:24:19;;;;;;;7.25;1.95;;;;;;;3.63;91.34;101126.28;5141727;28;20351;-79
2020/12/25 08:26:49;;;;;;;8.60;1.83;;;;;;;3.72;90.89;101124.56;5132790;28;20521;-80
2020/12/25 08:29:19;;;;;;;4.25;1.33;;;;;;;3.60;90.73;101127.13;5148944;28;20483;-86
2020/12/25 08:31:50;;;;;;;7.68;1.65;;;;;;;3.51;91.61;101133.16;5125195;28;20071;-83
2020/12/25 08:34:25;;;;;;;8.13;1.70;;;;;;;3.58;91.93;101123.69;5132964;28;20105;-83
2020/12/25 08:36:57;;;;;;;7.35;2.15;;;;;;;3.59;92.93;101130.56;5107186;29;20061;-85
2020/12/25 08:39:32;;;;;;;6.90;2.05;;;;;;;3.58;93.58;101136.59;5122168;28;20054;-79
2020/12/25 08:42:03;;;;;;;8.15;1.80;;;;;;;3.60;94.09;101129.72;5137072;28;20128;-78
2020/12/25 08:44:33;;;;;;;8.80;2.05;;;;;;;3.55;95.12;101140.91;5161722;28;20527;-79
2020/12/25 08:47:09;;;;;;;6.70;2.05;;;;;;;3.52;96.47;101150.38;5162157;28;20077;-79
2020/12/25 08:49:40;;;;;;;6.57;2.08;;;;;;;3.37;98.19;101156.34;5161176;28;20524;-82
2020/12/25 08:52:21;;;;;;;7.75;2.28;;;;;;;3.35;99.51;101162.41;5159573;28;20070;-80
2020/12/25 08:54:58;;;;;;;6.28;2.40;;;;;;;3.27;100.00;101167.53;5161179;28;20121;-80
2020/12/25 08:57:31;;;;;;;9.77;2.90;;;;;;;3.12;100.00;101174.34;5143084;28;20501;-82
2020/12/25 09:00:09;;;;;;;6.50;3.00;;;;;;;3.18;100.00;101174.41;5155975;28;20081;-80
2020/12/25 09:02:40;;;;;;;11.93;3.78;;;;;;;3.22;100.00;101170.97;5142587;28;20046;-79
2020/12/25 09:05:10;;;;;;;12.07;3.50;;;;;;;3.16;100.00;101176.13;5117402;28;20042;-81
2020/12/25 09:07:40;;;;;;;12.52;3.55;;;;;;;3.15;100.00;101189.84;5146244;28;20042;-80
2020/12/25 09:10:10;;;;;;;10.27;3.40;;;;;;;3.06;100.00;101185.50;5142594;28;20033;-80
2020/12/25 09:12:41;;;;;;;9.50;3.42;;;;;;;3.19;100.00;101181.28;5159410;28;20045;-81
2020/12/25 09:15:11;;;;;;;10.23;3.28;;;;;;;3.22;100.00;101181.28;5162729;28;20037;-78
2020/12/25 09:17:41;;;;;;;12.98;3.20;;;;;;;3.32;100.00;101178.75;5163438;28;20034;-83
2020/12/25 09:20:12;;;;;;;8.30;2.80;;;;;;;3.36;100.00;101183.06;5142522;28;20081;-80
2020/12/25 09:22:42;;;;;;;10.88;3.45;;;;;;;3.40;100.00;101189.09;5130695;28;20505;-82
2020/12/25 09:25:13;;;;;;;10.45;2.78;;;;;;;3.26;100.00;101194.22;5143904;28;20053;-80
2020/12/25 09:27:43;;;;;;;14.23;3.17;;;;;;;3.15;100.00;101195.00;5142652;28;20117;-82
2020/12/25 09:30:13;;;;;;;9.73;3.17;;;;;;;3.13;100.00;101196.72;5154625;28;20037;-81
2020/12/25 09:32:43;;;;;;;9.32;3.13;;;;;;;3.17;100.00;101198.50;5159825;28;20389;-80
2020/12/25 09:35:14;;;;;;;7.97;2.83;;;;;;;3.12;100.00;101195.88;5154119;28;20058;-81
2020/12/25 09:37:44;;;;;;;10.07;3.13;;;;;;;3.24;100.00;101192.47;5123483;28;20393;-84
2020/12/25 09:40:14;;;;;;;9.43;3.10;;;;;;;3.35;100.00;101199.41;5140488;28;20034;-80
2020/12/25 09:42:44;;;;;;;8.88;2.97;;;;;;;3.30;99.58;101203.69;5132087;28;20070;-81
2020/12/25 09:45:15;;;;;;;12.07;3.40;;;;;;;3.40;98.73;101209.75;5125334;28;20065;-81
2020/12/25 09:47:46;;;;;;;9.68;3.60;;;;;;;3.33;98.72;101211.44;5141871;28;20042;-80
2020/12/25 09:50:16;;;;;;;9.75;3.30;;;;;;;3.24;99.30;101210.56;5142209;28;20022;-79
2020/12/25 09:52:46;;;;;;;10.88;4.38;;;;;;;3.21;99.60;101213.13;5140476;28;20031;-79
2020/12/25 09:55:17;;;;;;;9.07;3.17;;;;;;;3.15;99.03;101220.84;5142506;28;20034;-81
2020/12/25 09:57:47;;;;;;;10.65;2.88;;;;;;;3.14;98.10;101221.69;5140734;28;20493;-81
2020/12/25 10:00:17;;;;;;;14.63;3.53;;;;;;;3.23;97.19;101224.34;5155962;28;20027;-80
2020/12/25 10:02:48;;;;;;;10.48;3.15;;;;;;;3.27;96.19;101215.72;5141132;28;20509;-81
2020/12/25 10:05:19;;;;;;;10.65;4.80;;;;;;;3.45;97.16;101216.69;5132938;28;20031;-79
2020/12/25 10:07:52;;;;;;;8.93;4.05;;;;;;;3.56;96.99;101220.13;5121043;28;20046;-80
2020/12/25 10:10:23;;;;;;;14.93;4.63;;;;;;;3.40;97.13;101217.50;5110936;28;20018;-80
2020/12/25 10:12:54;;;;;;;14.73;4.30;;;;;;;3.55;96.22;101223.56;5161075;28;20018;-79
2020/12/25 10:15:24;;;;;;;15.80;4.28;;;;;;;3.49;97.63;101225.28;5159665;28;20030;-82
2020/12/25 10:17:55;;;;;;;14.80;4.05;;;;;;;3.81;96.30;101217.59;5161651;28;20085;-80
2020/12/25 10:20:25;;;;;;;14.27;5.53;;;;;;;3.68;95.22;101222.75;5157069;28;20034;-79
2020/12/25 10:22:55;;;;;;;12.50;4.90;;;;;;;3.71;95.85;101226.22;5150814;28;20462;-80
2020/12/25 10:25:25;;;;;;;16.10;6.70;;;;;;;3.84;96.31;101217.63;5139816;28;20026;-81
2020/12/25 10:27:56;;;;;;;14.95;4.18;;;;;;;3.77;95.45;101218.47;5134173;28;20617;-83
2020/12/25 10:30:26;;;;;;;25.63;10.40;;;;;;;3.90;96.56;101211.59;5135439;28;20027;-83
2020/12/25 10:32:56;;;;;;;10.25;4.30;;;;;;;3.92;96.32;101213.31;5136688;28;20018;-82
2020/12/25 10:35:27;;;;;;;17.50;7.13;;;;;;;3.85;96.68;101218.47;5133241;28;20066;-80
2020/12/25 10:37:57;;;;;;;15.07;6.35;;;;;;;3.72;96.87;101220.19;5139946;28;20058;-83
2020/12/25 10:40:27;;;;;;;10.57;4.15;;;;;;;3.68;97.37;101215.00;5131064;28;20105;-80
2020/12/25 10:42:57;;;;;;;10.93;4.78;;;;;;;3.62;96.75;101223.59;5153138;28;20446;-86
2020/12/25 10:45:28;;;;;;;26.70;8.10;;;;;;;3.83;97.72;101221.09;5136841;28;20041;-81
2020/12/25 10:47:58;;;;;;;35.30;13.82;;;;;;;3.81;96.30;101224.50;5145858;28;20081;-80
2020/12/25 10:50:28;;;;;;;23.98;9.63;;;;;;;3.91;96.38;101221.94;5133907;28;20039;-83
2020/12/25 10:52:59;;;;;;;14.82;5.75;;;;;;;3.99;95.25;101219.38;5143160;28;20023;-83
2020/12/25 10:55:29;;;;;;;25.63;9.63;;;;;;;4.20;94.34;101222.84;5161030;28;20105;-82
2020/12/25 10:58:00;;;;;;;20.55;8.75;;;;;;;4.24;93.46;101224.56;5149594;28;20026;-80
2020/12/25 11:00:30;;;;;;;17.13;6.63;;;;;;;4.14;92.17;101232.31;5158813;28;20026;-81
2020/12/25 11:03:00;;;;;;;17.75;6.80;;;;;;;3.94;93.19;101223.69;5155603;28;20030;-80
2020/12/25 11:05:31;;;;;;;28.95;10.10;;;;;;;3.89;93.36;101225.38;5155924;28;20064;-80
2020/12/25 11:08:01;;;;;;;38.78;15.75;;;;;;;4.07;93.26;101222.81;5156567;28;20037;-82
2020/12/25 11:10:31;;;;;;;32.35;12.73;;;;;;;4.04;93.02;101218.53;5126128;28;20563;-83
2020/12/25 11:13:02;;;;;;;31.13;12.55;;;;;;;4.10;93.03;101215.94;5159294;28;20072;-78
2020/12/25 11:15:32;;;;;;;39.72;16.98;;;;;;;3.96;92.79;101212.47;5160033;28;20027;-78
2020/12/25 11:18:02;;;;;;;13.32;5.80;;;;;;;3.87;92.81;101222.81;5148747;28;20355;-78
2020/12/25 11:20:33;;;;;;;19.73;6.70;;;;;;;4.02;93.00;101209.03;5136021;28;20035;-79
2020/12/25 11:23:03;;;;;;;15.70;7.22;;;;;;;3.91;92.75;101214.19;5138553;28;20068;-81
2020/12/25 11:25:33;;;;;;;28.60;11.98;;;;;;;3.96;92.17;101211.63;5153693;28;20041;-80
2020/12/25 11:28:03;;;;;;;16.40;7.82;;;;;;;3.79;91.45;101209.00;5134787;28;20034;-79
2020/12/25 11:30:34;;;;;;;19.00;9.98;;;;;;;3.73;92.54;101216.75;5155627;28;20663;-81
2020/12/25 11:33:04;;;;;;;15.10;6.10;;;;;;;3.98;92.44;101208.16;5136119;28;20520;-81
2020/12/25 11:35:34;;;;;;;12.60;5.20;;;;;;;4.20;91.97;101216.78;5156212;28;20161;-82
2020/12/25 11:38:04;;;;;;;16.38;6.25;;;;;;;4.15;91.10;101214.19;5158089;28;20030;-80
2020/12/25 11:40:35;;;;;;;13.70;4.93;;;;;;;3.96;90.95;101212.47;5144575;28;20430;-81
2020/12/25 11:43:05;;;;;;;13.98;4.78;;;;;;;4.00;91.54;101214.22;5138748;28;20027;-82
2020/12/25 11:45:35;;;;;;;21.98;8.30;;;;;;;4.13;92.80;101212.50;5144708;28;20088;-79